Weather observations for the past three days for
Andrews-Murphy Airport
Metric (Imperial)
Date Time (edt) Wind (kph) Vis. (km) Weather Sky Cond. Temperature (ºC) Relative Humidity Wind Chill (°C) Heat Index (°C) Pressure Precipitation (cm)
Air Dwpt 6 hour altimeter (cm) sea level (mb) 1 hr 3 hr 6 hr
Max. Min.
02 15:35 NW 22 G 33 16.09 Fair CLR 17.4 -2.6 26% 76.02 0.0
02 15:15 N 24 G 37 16.09 Fair CLR 17.2 -2.2 27% 76 0.0
02 14:55 N 19 G 26 16.09 Partly Cloudy SCT075 17.5 -1.6 27% 76 0.0
02 14:35 N 13 16.09 Mostly Cloudy BKN075 16.7 -0.9 30% 76.02 0.0
02 14:15 N 13 G 30 16.09 Mostly Cloudy BKN075 16.6 -0.9 31% 76.02 0.0
02 13:55 NE 19 G 28 16.09 Partly Cloudy SCT055 SCT075 16.6 0.3 17 10.5 33% 76.02 0.0
02 13:35 NE 13 16.09 Mostly Cloudy BKN055 16.9 1.5 36% 76.02 0.0
02 13:15 NE 11 G 26 16.09 Mostly Cloudy BKN060 BKN070 16.6 2 38% 76.05 0.0
02 12:55 N 15 G 26 16.09 Mostly Cloudy BKN070 16.8 2.7 39% 76.05 0.0
02 12:35 NW 20 16.09 Overcast BKN060 OVC070 15.2 2.1 41% 76.07 0.0
02 12:15 N 15 16.09 Overcast BKN060 OVC070 15.2 3 44% 76.1 0.0
02 11:55 NE 11 16.09 Mostly Cloudy SCT047 BKN070 15.7 3.9 46% 76.07 0.0
02 11:35 NE 6 16.09 Partly Cloudy SCT047 16.1 4.2 45% 76.07 0.0
02 11:15 E 7 16.09 Fair CLR 15.4 4.2 47% 76.07 0.0
02 10:55 N 11 16.09 Partly Cloudy SCT041 15.2 5.2 52% 76.07 0.0
02 10:35 SE 7 16.09 Partly Cloudy SCT039 14.7 4.5 51% 76.07 0.0
02 10:15 Calm 16.09 Fair CLR 14.2 4.5 52% 76.07 0.0
02 09:55 N 7 16.09 Partly Cloudy SCT060 13.4 4.2 54% 76.07 0.0
02 09:35 N 11 16.09 Fair CLR 12.6 4.3 57% 76.07 0.0
02 09:15 E 6 16.09 Fair CLR 12.5 4.7 59% 76.05 0.0
02 08:55 Calm 16.09 Fair CLR 11.7 4 60% 76.07 0.0
02 08:35 Calm 16.09 Fair CLR 11.2 3.7 60% 76.07 0.0
02 08:15 Calm 16.09 Partly Cloudy SCT120 11 4.6 65% 76.07 0.0
02 07:55 Calm 16.09 Mostly Cloudy BKN120 10.4 4.5 12.5 9.4 67% 76.07 0.0
02 07:35 Calm 16.09 Partly Cloudy SCT120 10.2 4.8 69% 76.05 0.0
02 07:15 Calm 16.09 Fair CLR 9.5 5 74% 76.02 0.0
02 06:55 Calm 16.09 Fair CLR 9.5 5 74% 76.05 0.0
02 06:35 E 6 16.09 Fair CLR 10.1 4.2 67% 76.02 0.0
02 06:15 Calm 16.09 Fair CLR 10 4.5 69% 76.05 0.0
02 05:55 Calm 16.09 Partly Cloudy SCT120 10.3 3.9 65% 76.02 0.0
02 05:35 NE 9 16.09 Fair CLR 10.9 3.4 60% 76.02 0.0
02 05:15 NE 13 16.09 Fair CLR 11 3.5 60% 76.02 0.0
02 04:55 NE 11 16.09 Fair CLR 11.3 3.4 59% 76.02 0.0
02 04:35 NE 11 16.09 Fair CLR 10.7 4.5 66% 76.02 0.0
02 04:15 Calm 16.09 Fair CLR 10.9 4.5 65% 76.05 0.0
02 03:55 Calm 16.09 Fair CLR 11.2 4.3 63% 76.05 0.0
02 03:35 Calm 16.09 Fair CLR 11 5.6 70% 76.07 0.0
02 03:15 Calm 16.09 Fair CLR 11.1 5.6 69% 76.05 0.0
02 02:55 NE 6 16.09 Fair CLR 11.9 4.7 62% 76.05 0.0
02 02:35 N 9 16.09 Fair CLR 12.3 4.3 58% 76.07 0.0
02 02:15 Calm 16.09 Fair CLR 12.2 5.5 64% 76.07 0.0
02 01:55 Calm 16.09 Fair CLR 12.5 5.6 15.5 11 63% 76.07 0.0
02 01:35 Calm 16.09 Fair CLR 11.7 6.6 71% 76.07 0.0
02 01:15 E 7 16.09 Fair CLR 11.8 6.6 71% 76.07 0.0
02 00:55 N 7 16.09 Fair CLR 11.1 7.3 78% 76.1 0.0
02 00:35 Calm 16.09 Fair CLR 11 7.5 79% 76.1 0.0
02 00:15 Calm 16.09 Fair CLR 11 7.1 77% 76.1 0.0
01 23:55 Calm 16.09 Fair CLR 11.1 6.9 76% 76.1 0.0
01 23:35 Calm 16.09 Fair CLR 11.1 6.7 75% 76.1 0.0
01 23:15 Calm 16.09 Fair CLR 11.4 6.8 74% 76.12 0.0
01 22:55 Calm 16.09 Fair CLR 11.5 6.6 72% 76.12 0.0
01 22:35 Calm 16.09 Fair CLR 11.7 6.7 72% 76.12 0.0
01 22:15 Calm 16.09 Fair CLR 12.1 6.4 68% 76.12 0.0
01 21:55 Calm 16.09 Fair CLR 12.5 6.2 66% 76.12 0.0
01 21:35 Calm 16.09 Fair CLR 12.5 6.6 68% 76.1 0.0
01 21:15 Calm 16.09 Fair CLR 12.8 5.5 61% 76.07 0.0
01 20:55 Calm 16.09 Fair CLR 13.7 5 56% 76.05 0.0
01 20:35 Calm 16.09 Fair CLR 14.1 4.7 53% 76.02 0.0
01 20:15 N 9 16.09 Fair CLR 14.9 3.6 47% 76.02 0.0
01 19:55 Calm 16.09 Fair CLR 15.6 4.2 19.5 15.5 47% 76.02 0.0
01 19:35 N 6 16.09 Fair CLR 17 2.8 39% 76 0.0
01 19:15 NW 6 16.09 Fair CLR 17.3 2.8 38% 75.95 0.0
01 18:55 SW 9 16.09 Fair CLR 18.5 3.1 36% 75.95 0.0
01 18:35 SW 11 16.09 Fair CLR 18.9 3.5 36% 75.95 0.0
01 18:15 W 15 16.09 Fair CLR 18.7 3.8 37% 75.95 0.0
01 17:55 W 13 16.09 Fair CLR 18.1 3.2 37% 75.97 0.0
01 17:35 SW 19 16.09 Fair CLR 18.3 2.8 36% 76 0.0
01 17:15 SW 19 16.09 Fair CLR 18.7 3.5 37% 76 0.0
01 16:55 SW 20 16.09 Fair CLR 19.1 3.9 37% 76 0.0
01 16:35 SW 20 G 28 16.09 Fair CLR 19.1 3.7 36% 76 0.0
01 16:15 SW 22 16.09 Fair CLR 19.4 3.6 35% 76.02 0.0
01 15:55 SW 15 16.09 Fair CLR 19.2 4 37% 76.02 0.0
01 15:35 SW 15 G 30 16.09 Fair CLR 19 4.2 38% 76.05 0.0
01 15:15 SW 17 G 26 16.09 Fair CLR 19 3.8 37% 76.05 0.0
01 14:55 SW 15 16.09 Fair CLR 19.1 5 40% 76.05 0.0
01 14:35 SW 17 16.09 Fair CLR 19.2 4.6 38% 76.07 0.0
01 14:15 SW 15 16.09 Fair CLR 18.7 3.6 37% 76.07 0.0
01 13:55 SW 11 16.09 Fair CLR 19.2 3.4 19.2 8.4 35% 76.07 0.0
01 13:35 SW 17 16.09 Fair CLR 18.8 3.3 36% 76.07 0.0
01 13:15 SW 17 16.09 Fair CLR 18.6 3.9 38% 76.1 0.0
01 12:55 W 13 16.09 Fair CLR 19.1 5.4 41% 76.12 0.0
01 12:35 SW 7 16.09 Fair CLR 18.4 4.3 39% 76.12 0.0
01 12:15 W 17 16.09 Fair CLR 18 5.8 45% 76.15 0.0
01 11:55 W 11 16.09 Fair CLR 17.8 5.3 44% 76.15 0.0
01 11:35 W 15 16.09 Fair CLR 17.4 5.3 45% 76.17 0.0
01 11:15 W 17 16.09 Fair CLR 17 5.1 46% 76.2 0.0
01 10:55 W 11 16.09 Fair CLR 16.4 5.9 50% 76.17 0.0
01 10:35 SW 9 16.09 Fair CLR 15.6 6.4 55% 76.17 0.0
01 10:15 W 9 16.09 Fair CLR 14.7 6.4 58% 76.15 0.0
01 09:55 W 6 16.09 Fair CLR 13.8 5.2 56% 76.15 0.0
01 09:35 Calm 16.09 Fair CLR 12.8 5.8 63% 76.17 0.0
01 09:15 Calm 16.09 Fair CLR 11.4 6.8 74% 76.17 0.0
01 08:55 W 6 16.09 Fair CLR 10.3 6.8 79% 76.15 0.0
01 08:35 Calm 16.09 Fair CLR 9.6 6.4 81% 76.15 0.0
01 08:15 Calm 16.09 Fair CLR 9.5 6.9 84% 76.15 0.0
01 07:55 Calm 16.09 Fair CLR 8.2 6.2 9.1 7.1 87% 76.12 0.0
01 07:35 Calm 16.09 Fair CLR 7.6 5.9 89% 76.12 0.0
01 07:15 Calm 16.09 Fair CLR 7.2 5.5 89% 76.12 0.0
01 06:55 Calm 16.09 Fair CLR 7.1 5.4 89% 76.1 0.0
01 06:35 Calm 16.09 Fair CLR 7.5 5.5 87% 76.1 0.0
01 06:15 Calm 16.09 Fair CLR 7.8 5.7 87% 76.1 0.0
01 05:55 Calm 16.09 Fair CLR 7.9 5.8 87% 76.1 0.0
01 05:35 Calm 16.09 Fair CLR 8.2 6.2 87% 76.12 0.0
01 04:55 Calm 16.09 Fair CLR 8.6 6.1 84% 76.1 0.0
01 04:35 Calm 16.09 Partly Cloudy SCT120 8.8 6.5 86% 76.1 0.0
01 04:15 Calm 16.09 Partly Cloudy SCT120 8.8 6.5 86% 76.1 0.0
01 03:55 Calm 16.09 Fair CLR 9 6.5 85% 76.1 0.0
01 03:35 Calm 16.09 Fair CLR 9 6.2 83% 76.07 0.0
01 03:15 Calm 16.09 Fair CLR 8.6 5.9 83% 76.07 0.0
01 02:55 Calm 16.09 Fair CLR 9 6 82% 76.07 0.0
01 02:35 Calm 16.09 Fair CLR 9 6 82% 76.07 0.0
01 02:15 Calm 16.09 Fair CLR 9.1 5.9 81% 76.07 0.0
01 01:55 Calm 16.09 Fair CLR 9 5.8 15.1 8.8 81% 76.1 0.0
01 01:35 Calm 16.09 Partly Cloudy SCT120 9.1 5.5 78% 76.1 0.0
01 01:15 Calm 16.09 Partly Cloudy SCT120 9.1 5.6 79% 76.1 0.0
01 00:55 Calm 16.09 Partly Cloudy SCT120 9.3 5.5 77% 76.12 0.0
01 00:35 E 6 16.09 Partly Cloudy SCT120 9.4 5.3 76% 76.12 0.0
01 00:15 NE 6 16.09 Fair CLR 9.5 5.1 74% 76.12 0.0
30 23:55 Calm 16.09 Fair CLR 9.2 5.2 76% 76.12 0.0
30 23:35 Calm 16.09 Fair CLR 8.9 5.1 77% 76.15 0.0
30 23:15 Calm 16.09 Fair CLR 8.8 4.6 75% 76.15 0.0
30 22:55 Calm 16.09 Fair CLR 8.9 4.1 72% 76.15 0.0
30 22:35 NE 6 16.09 Fair CLR 10.1 4 66% 76.15 0.0
30 22:15 NE 6 16.09 Fair CLR 10.1 3.7 65% 76.12 0.0
30 21:55 E 6 16.09 Fair CLR 10.8 3.8 62% 76.1 0.0
30 21:35 E 6 16.09 Fair CLR 11.4 3.9 60% 76.1 0.0
30 21:15 SE 13 16.09 Fair CLR 12.7 3.2 53% 76.07 0.0
30 20:55 SE 7 16.09 Fair CLR 13.3 2.9 50% 76.07 0.0
30 20:35 SE 13 16.09 Fair CLR 14.3 1.9 43% 76.02 0.0
30 20:15 N 13 16.09 Fair CLR 14.6 1.9 42% 76 0.0
30 19:35 N 15 16.09 Fair CLR 15.7 1.2 38% 76 0.0
30 19:15 N 13 16.09 Fair CLR 16.1 1.4 37% 76 0.0
30 18:55 N 11 16.09 Fair CLR 16.8 1.8 37% 76 0.0
30 18:35 N 11 16.09 Fair CLR 17.4 2.4 37% 76 0.0
30 18:15 N 7 16.09 Fair CLR 17.6 3.5 39% 76 0.0
30 17:55 N 13 16.09 Fair CLR 17.7 3.3 38% 76 0.0
30 17:35 N 13 16.09 Fair CLR 17.7 3.3 38% 75.97 0.0
30 17:15 N 15 16.09 Fair CLR 18.4 3.5 37% 76 0.0
30 16:55 N 22 16.09 Fair CLR 18.4 4 39% 75.97 0.0
30 16:35 N 22 G 31 16.09 Fair CLR 18.4 3.2 37% 75.97 0.0
30 16:15 N 17 G 31 16.09 Fair CLR 18.7 2.4 34% 75.97 0.0
30 15:55 NE 19 G 30 16.09 Fair CLR 19.1 0.2 28% 76 0.0
30 15:35 N 17 G 33 16.09 Fair CLR 19.5 -0.5 26% 76 0.0
30 15:15 E 20 G 28 16.09 Fair CLR 19.6 2.7 33% 75.95 0.0
30 14:55 NE 20 G 30 16.09 Fair CLR 19.9 3 33% 75.97 0.0
30 14:35 NE 20 G 28 16.09 Fair CLR 19.6 2.9 33% 75.97 0.0
30 14:15 NE 19 16.09 Fair CLR 19.3 4 37% 75.97 0.0
30 13:55 NE 22 G 30 16.09 Fair CLR 19 4.9 19.1 13 40% 75.97 0.0
30 13:35 N 13 16.09 Fair CLR 19 6.2 43% 76 0.0
30 13:15 NE 20 G 28 16.09 Fair CLR 18.3 5.4 43% 76.02 0.0
30 12:55 NE 13 16.09 Fair CLR 18.4 5.4 43% 76.02 0.0
30 12:35 NE 17 16.09 Fair CLR 18.8 7 46% 76.02 0.0
30 12:15 N 9 G 26 16.09 Fair CLR 18.7 6.2 44% 76.02 0.0
30 11:55 NE 7 16.09 Fair CLR 18.7 6.7 46% 76 0.0
30 11:35 NW 15 G 26 16.09 Fair CLR 18.3 7.3 49% 76 0.0
30 11:15 N 11 16.09 Fair CLR 18.1 7.7 51% 76 0.0
30 10:55 NE 9 16.09 Fair CLR 17.1 7.5 53% 76 0.0
30 10:35 NE 19 G 28 16.09 Fair CLR 16.7 7.7 56% 76 0.0
30 10:15 N 13 16.09 Fair CLR 16.6 8.6 59% 76 0.0
30 09:55 NE 13 16.09 Fair CLR 16.2 8.8 62% 76 0.0
30 09:35 E 13 16.09 Fair CLR 15 8.3 64% 76 0.0
30 09:15 NE 17 16.09 Fair CLR 15 8.8 67% 75.97 0.0
30 08:55 N 6 16.09 Fair CLR 14.4 8.9 70% 75.97 0.0
30 08:35 E 9 16.09 Fair CLR 14.4 9.8 74% 75.95 0.0
30 08:15 NE 9 16.09 Partly Cloudy SCT029 13.8 10.8 82% 75.95 0.0
30 07:55 NE 7 16.09 Mostly Cloudy BKN029 12.8 11.8 14 12.8 94% 75.92 0.0
30 07:35 Calm 16.09 Overcast SCT004 SCT020 OVC027 13 12 94% 75.92 0.0
30 07:15 Calm 16.09 Overcast OVC022 13.1 12.1 94% 75.92 0.0
30 06:55 Calm 16.09 Mostly Cloudy BKN022 BKN090 BKN120 13.1 12 93% 75.92 0.0
30 06:35 SW 6 16.09 Mostly Cloudy BKN090 BKN120 13.3 11.9 91% 75.95 0.0
30 06:15 NW 6 16.09 Overcast OVC090 13.5 12 91% 75.97 0.0
30 05:55 NW 9 16.09 Overcast SCT024 OVC090 13.5 12 91% 76 0.0
30 05:35 W 6 16.09 Light Drizzle BKN026 BKN070 OVC090 13.6 12.3 92% 75.97 0.0
30 05:15 W 7 16.09 Light Drizzle BKN028 BKN070 OVC090 13.6 12.4 93% 75.97 0.0
30 04:55 W 7 16.09 Light Rain SCT028 BKN080 OVC100 13.7 12.2 91% 75.97 0.0
30 04:35 N 6 16.09 Overcast SCT080 OVC110 13.4 12.3 93% 75.92 0.0
30 04:15 Calm 16.09 Mostly Cloudy SCT070 SCT080 BKN120 13.6 12.8 95% 75.87 0.0
30 03:55 NE 6 16.09 Partly Cloudy SCT070 13.6 12.9 96% 75.84 0.0
30 03:35 Calm 16.09 Partly Cloudy SCT070 SCT120 13.6 12.8 95% 75.87 0.0
30 03:15 Calm 16.09 Fair CLR 13.6 13 96% 75.84 0.0
30 02:55 Calm 16.09 Partly Cloudy SCT070 13.6 13 96% 75.87 0.0
30 02:35 Calm 16.09 Partly Cloudy SCT070 13.7 13 96% 75.9 0.0
30 02:15 Calm 16.09 Partly Cloudy SCT045 13.6 12.8 95% 75.92 0.0
30 01:55 Calm 16.09 Partly Cloudy SCT045 14 13.3 18.6 14 96% 75.92 0.0
30 01:35 Calm 16.09 Fair CLR 14.2 13.5 96% 75.95 0.0
30 01:15 Calm 11.27 Fair CLR 14.8 14.1 96% 76 0.0
30 00:55 Calm 16.09 Fair CLR 14.6 13.9 96% 76 0.0
30 00:35 Calm 16.09 Fair CLR 15 14.4 96% 76.02 0.0
30 00:15 Calm 16.09 Fair CLR 15.2 14.5 96% 76.02 0.0
29 23:55 SE 6 16.09 Partly Cloudy SCT046 15.5 14.9 96% 76.02 0.0
29 23:35 Calm 16.09 Fair CLR 15.6 14.8 95% 76.02 0.0
29 23:15 Calm 11.27 Fair CLR 15.6 14.9 96% 76.05 0.0
29 22:55 Calm 11.27 Partly Cloudy SCT002 15.7 14.9 95% 76.05 0.0
29 22:35 Calm 16.09 Overcast OVC002 16.3 15.5 95% 76.05 0.0
29 22:15 Calm 8.05 Fog/Mist SCT002 BKN060 16.5 15.6 94% 76.02 0.0
29 21:55 Calm 8.05 Fog/Mist SCT004 SCT060 16.9 15.9 94% 76 0.0
29 21:35 W 6 11.27 Fair CLR 17.1 15.9 93% 76 0.0
29 21:15 Calm 16.09 Partly Cloudy SCT033 17.6 16.2 92% 75.97 0.0
29 20:55 Calm 16.09 Partly Cloudy SCT033 17.5 16 91% 75.92 0.0
29 20:35 Calm 16.09 Fair CLR 18 16.2 89% 75.92 0.0
29 20:15 Calm 16.09 Fair CLR 18.5 16.5 88% 75.92 0.0
29 19:55 Calm 16.09 Partly Cloudy SCT041 18.7 16.5 25 18 87% 75.9 0.0
29 19:35 Calm 16.09 Partly Cloudy SCT043 19.3 16.5 84% 75.87 0.0
29 19:15 W 6 16.09 Partly Cloudy SCT043 SCT050 SCT065 19.6 16.5 82% 75.9 0.0
29 18:55 W 9 16.09 Mostly Cloudy SCT050 BKN065 BKN075 20 16 78% 75.9 0.0
29 18:35 W 9 11.27 Light Rain SCT034 BKN075 OVC100 20.4 16.1 76% 75.87 0.0
29 18:15 SW 13 16.09 Light Rain SCT043 SCT050 BKN110 23.1 14.9 60% 75.84 0.0
29 17:55 SW 13 16.09 Partly Cloudy SCT049 SCT055 SCT075 24.6 15.2 56% 26 75.84 0.0
29 17:35 SW 15 16.09 Mostly Cloudy SCT080 BKN090 24.8 15.6 57% 26 75.84 0.0
29 17:15 SW 19 16.09 Mostly Cloudy SCT035 SCT049 BKN100 25 16 57% 26 75.87 0.0
29 16:55 W 7 16.09 Mostly Cloudy SCT034 SCT045 BKN065 24.2 15.5 58% 25 75.87 0.0
29 16:35 SW 19 16.09 Mostly Cloudy SCT030 SCT037 BKN085 24.5 16 59% 26 75.9 0.0
29 16:15 SW 13 16.09 Partly Cloudy SCT022 SCT032 SCT070 24.2 16.5 62% 25 75.92 0.0
29 15:55 SW 11 16.09 Partly Cloudy SCT019 SCT027 SCT032 22.5 16.1 67% 76 0.0
Date Time (edt) Wind (kph) Vis. (km) Weather Sky Cond. Air Dwpt Max. Min. Relative Humidity Wind Chill (°C) Heat Index (°C) altimeter (cm) sea level (mb) 1 hr 3 hr 6 hr
6 hour
Temperature (ºC) Pressure Precipitation (cm)